createdAt,value
2022-09-11T04:00:36.113Z,4.40
2022-09-11T04:11:40.968Z,4.50
2022-09-11T04:22:40.836Z,5.60
2022-09-11T04:33:40.717Z,5.30
2022-09-11T04:44:40.593Z,5.90
2022-09-11T04:55:40.478Z,6.50
2022-09-11T05:06:40.343Z,5.60
2022-09-11T05:17:40.231Z,6.00
2022-09-11T05:28:40.109Z,4.20
2022-09-11T05:39:40.000Z,6.10
2022-09-11T05:50:39.851Z,5.10
2022-09-11T06:01:39.792Z,6.10
2022-09-11T06:12:39.605Z,4.50
2022-09-11T06:23:39.583Z,7.00
2022-09-11T06:34:39.358Z,5.70
2022-09-11T06:45:39.268Z,6.40
2022-09-11T06:56:39.126Z,5.70
2022-09-11T07:07:39.018Z,6.70
2022-09-11T07:18:38.866Z,6.50
2022-09-11T07:29:38.746Z,5.20
2022-09-11T07:40:38.622Z,6.90
2022-09-11T07:51:38.521Z,6.40
2022-09-11T08:02:38.441Z,6.90
2022-09-11T08:13:38.257Z,7.30
2022-09-11T08:24:38.136Z,7.10
2022-09-11T08:35:38.033Z,9.60
2022-09-11T08:46:37.903Z,9.10
2022-09-11T08:57:37.776Z,8.90
2022-09-11T09:08:37.636Z,8.10
2022-09-11T09:19:37.525Z,9.60
2022-09-11T09:30:37.393Z,9.20
2022-09-11T09:41:37.345Z,7.80
2022-09-11T09:52:37.157Z,8.10
2022-09-11T10:03:37.037Z,9.20
2022-09-11T10:14:52.682Z,7.40
2022-09-11T10:25:36.777Z,7.10
2022-09-11T10:36:36.655Z,6.50
2022-09-11T10:47:36.532Z,6.90
2022-09-11T10:58:36.432Z,9.50
2022-09-11T11:09:36.318Z,8.70
2022-09-11T11:20:36.172Z,9.30
2022-09-11T11:31:36.051Z,7.50
2022-09-11T11:42:35.954Z,7.50
2022-09-11T11:53:35.817Z,6.80
2022-09-11T12:04:35.711Z,8.70
2022-09-11T12:15:35.617Z,9.20
2022-09-11T12:26:35.449Z,8.70
2022-09-11T12:37:35.327Z,6.20
2022-09-11T12:48:35.210Z,8.90
2022-09-11T12:59:35.096Z,8.70
2022-09-11T13:10:34.961Z,7.70
2022-09-11T13:21:34.838Z,9.10
2022-09-11T13:32:34.744Z,8.80
2022-09-11T13:43:34.603Z,9.20
2022-09-11T13:54:34.469Z,7.00
2022-09-11T14:05:34.362Z,8.50
2022-09-11T14:16:34.226Z,8.60
2022-09-11T14:27:34.107Z,7.10
2022-09-11T14:38:33.986Z,6.60
2022-09-11T14:49:33.869Z,7.00
2022-09-11T15:00:33.788Z,7.90
2022-09-11T15:11:38.747Z,7.90
2022-09-11T15:22:33.507Z,6.60
2022-09-11T15:33:33.389Z,6.80
2022-09-11T15:44:33.278Z,6.70
2022-09-11T15:55:33.160Z,7.20
2022-09-11T16:06:33.034Z,6.10
2022-09-11T16:17:32.909Z,7.00
2022-09-11T16:28:32.827Z,7.30
2022-09-11T16:39:32.662Z,6.20
2022-09-11T16:50:32.556Z,6.00
2022-09-11T17:01:32.425Z,5.60
2022-09-11T17:12:32.302Z,5.60
2022-09-11T17:23:32.176Z,5.60
2022-09-11T17:34:32.067Z,4.40
2022-09-11T17:45:31.925Z,5.90
2022-09-11T17:56:31.812Z,5.90
2022-09-11T18:07:31.696Z,6.50
2022-09-11T18:18:31.603Z,6.20
2022-09-11T18:29:31.434Z,7.00
2022-09-11T18:40:31.317Z,7.10
2022-09-11T18:51:31.280Z,7.70
2022-09-11T19:02:31.069Z,6.10
2022-09-11T19:13:30.958Z,7.60
2022-09-11T19:24:30.845Z,8.50
2022-09-11T19:35:30.710Z,8.50
2022-09-11T19:46:30.682Z,8.80
2022-09-11T19:57:30.491Z,8.00
2022-09-11T20:08:30.359Z,10.10
2022-09-11T20:19:30.226Z,8.50
2022-09-11T20:30:30.106Z,9.80
2022-09-11T20:41:29.985Z,10.40
2022-09-11T20:52:29.847Z,10.10
